sensor_id;sensor_type;location;lat;lon;timestamp;pressure;altitude;pressure_sealevel;temperature;humidity
74474;BME280;62922;-6.168;106.796;2022-11-06T00:01:38;101230.44;;;30.61;61.11
74474;BME280;62922;-6.168;106.796;2022-11-06T00:04:04;101231.56;;;30.60;60.91
74474;BME280;62922;-6.168;106.796;2022-11-06T00:06:30;101231.25;;;30.62;61.04
74474;BME280;62922;-6.168;106.796;2022-11-06T00:09:01;101226.78;;;30.61;61.08
74474;BME280;62922;-6.168;106.796;2022-11-06T00:11:27;101231.25;;;30.62;61.01
74474;BME280;62922;-6.168;106.796;2022-11-06T00:13:53;101225.13;;;30.60;61.09
74474;BME280;62922;-6.168;106.796;2022-11-06T00:16:19;101220.31;;;30.60;60.92
74474;BME280;62922;-6.168;106.796;2022-11-06T00:18:45;101218.84;;;30.63;61.01
74474;BME280;62922;-6.168;106.796;2022-11-06T00:21:14;101218.31;;;30.61;61.03
74474;BME280;62922;-6.168;106.796;2022-11-06T00:23:40;101209.56;;;30.62;60.95
74474;BME280;62922;-6.168;106.796;2022-11-06T00:26:07;101211.53;;;30.62;60.97
74474;BME280;62922;-6.168;106.796;2022-11-06T00:28:33;101219.69;;;30.63;61.14
74474;BME280;62922;-6.168;106.796;2022-11-06T00:31:02;101218.84;;;30.63;61.08
74474;BME280;62922;-6.168;106.796;2022-11-06T00:33:28;101225.59;;;30.62;61.00
74474;BME280;62922;-6.168;106.796;2022-11-06T00:35:54;101235.41;;;30.64;61.06
74474;BME280;62922;-6.168;106.796;2022-11-06T00:38:20;101232.94;;;30.63;61.11
74474;BME280;62922;-6.168;106.796;2022-11-06T00:40:48;101242.72;;;30.65;60.94
74474;BME280;62922;-6.168;106.796;2022-11-06T00:43:14;101241.06;;;30.64;60.93
74474;BME280;62922;-6.168;106.796;2022-11-06T00:45:40;101243.53;;;30.66;61.04
74474;BME280;62922;-6.168;106.796;2022-11-06T00:48:06;101239.06;;;30.65;61.00
74474;BME280;62922;-6.168;106.796;2022-11-06T00:50:34;101243.22;;;30.67;60.90
74474;BME280;62922;-6.168;106.796;2022-11-06T00:53:00;101244.38;;;30.66;61.12
74474;BME280;62922;-6.168;106.796;2022-11-06T00:55:26;101259.63;;;30.65;60.91
74474;BME280;62922;-6.168;106.796;2022-11-06T00:57:52;101256.50;;;30.67;61.03
74474;BME280;62922;-6.168;106.796;2022-11-06T01:00:20;101257.31;;;30.67;60.95
74474;BME280;62922;-6.168;106.796;2022-11-06T01:02:46;101265.47;;;30.69;61.13
74474;BME280;62922;-6.168;106.796;2022-11-06T01:05:12;101260.63;;;30.69;61.08
74474;BME280;62922;-6.168;106.796;2022-11-06T01:07:38;101265.13;;;30.71;61.02
74474;BME280;62922;-6.168;106.796;2022-11-06T01:10:05;101263.44;;;30.69;60.98
74474;BME280;62922;-6.168;106.796;2022-11-06T01:12:31;101274.41;;;30.71;61.01
74474;BME280;62922;-6.168;106.796;2022-11-06T01:14:57;101265.66;;;30.73;60.80
74474;BME280;62922;-6.168;106.796;2022-11-06T01:17:23;101269.59;;;30.72;61.12
74474;BME280;62922;-6.168;106.796;2022-11-06T01:19:49;101265.13;;;30.71;61.00
74474;BME280;62922;-6.168;106.796;2022-11-06T01:22:18;101271.47;;;30.76;60.67
74474;BME280;62922;-6.168;106.796;2022-11-06T01:24:46;101269.50;;;30.77;60.61
74474;BME280;62922;-6.168;106.796;2022-11-06T01:27:12;101276.44;;;30.79;60.76
74474;BME280;62922;-6.168;106.796;2022-11-06T01:29:37;101275.59;;;30.79;60.62
74474;BME280;62922;-6.168;106.796;2022-11-06T01:32:06;101271.34;;;30.81;60.52
74474;BME280;62922;-6.168;106.796;2022-11-06T01:34:32;101273.03;;;30.82;60.84
74474;BME280;62922;-6.168;106.796;2022-11-06T01:36:57;101277.84;;;30.82;60.56
74474;BME280;62922;-6.168;106.796;2022-11-06T01:39:26;101276.66;;;30.83;60.85
74474;BME280;62922;-6.168;106.796;2022-11-06T01:41:52;101280.00;;;30.85;60.83
74474;BME280;62922;-6.168;106.796;2022-11-06T01:46:46;101281.69;;;30.86;60.55
74474;BME280;62922;-6.168;106.796;2022-11-06T01:49:14;101276.03;;;30.86;60.71
74474;BME280;62922;-6.168;106.796;2022-11-06T01:51:44;101276.56;;;30.88;60.41
74474;BME280;62922;-6.168;106.796;2022-11-06T01:54:11;101277.38;;;30.88;60.46
74474;BME280;62922;-6.168;106.796;2022-11-06T01:56:38;101279.38;;;30.88;60.53
74474;BME280;62922;-6.168;106.796;2022-11-06T01:59:04;101271.72;;;30.88;60.14
74474;BME280;62922;-6.168;106.796;2022-11-06T02:01:31;101290.00;;;30.91;60.32
74474;BME280;62922;-6.168;106.796;2022-11-06T02:04:15;101287.69;;;30.93;60.35
74474;BME280;62922;-6.168;106.796;2022-11-06T02:06:44;101282.88;;;30.93;60.29
74474;BME280;62922;-6.168;106.796;2022-11-06T02:09:10;101282.06;;;30.93;60.45
74474;BME280;62922;-6.168;106.796;2022-11-06T02:11:44;101282.88;;;30.93;60.51
74474;BME280;62922;-6.168;106.796;2022-11-06T02:21:35;101300.81;;;30.97;60.10
74474;BME280;62922;-6.168;106.796;2022-11-06T02:29:04;101292.00;;;30.99;60.26
74474;BME280;62922;-6.168;106.796;2022-11-06T02:31:33;101282.41;;;31.00;60.23
74474;BME280;62922;-6.168;106.796;2022-11-06T02:34:04;101284.91;;;31.01;60.13
74474;BME280;62922;-6.168;106.796;2022-11-06T02:36:33;101285.09;;;31.05;59.96
74474;BME280;62922;-6.168;106.796;2022-11-06T02:39:01;101278.94;;;31.03;60.09
74474;BME280;62922;-6.168;106.796;2022-11-06T02:41:30;101284.78;;;31.06;59.97
74474;BME280;62922;-6.168;106.796;2022-11-06T02:43:56;101279.97;;;31.07;59.62
74474;BME280;62922;-6.168;106.796;2022-11-06T02:46:25;101278.84;;;31.08;60.00
74474;BME280;62922;-6.168;106.796;2022-11-06T02:48:53;101276.81;;;31.08;60.01
74474;BME280;62922;-6.168;106.796;2022-11-06T02:51:21;101277.66;;;31.09;59.88
74474;BME280;62922;-6.168;106.796;2022-11-06T02:53:49;101277.34;;;31.10;59.59
74474;BME280;62922;-6.168;106.796;2022-11-06T02:56:19;101279.31;;;31.10;59.88
74474;BME280;62922;-6.168;106.796;2022-11-06T02:58:57;101277.00;;;31.12;59.56
74474;BME280;62922;-6.168;106.796;2022-11-06T03:01:31;101277.19;;;31.15;59.68
74474;BME280;62922;-6.168;106.796;2022-11-06T03:04:00;101271.25;;;31.17;59.55
74474;BME280;62922;-6.168;106.796;2022-11-06T03:06:30;101266.94;;;31.19;59.48
74474;BME280;62922;-6.168;106.796;2022-11-06T03:09:01;101278.72;;;31.21;59.30
74474;BME280;62922;-6.168;106.796;2022-11-06T03:11:30;101273.59;;;31.23;59.35
74474;BME280;62922;-6.168;106.796;2022-11-06T03:18:53;101275.94;;;31.30;59.25
74474;BME280;62922;-6.168;106.796;2022-11-06T03:21:27;101261.53;;;31.31;59.26
74474;BME280;62922;-6.168;106.796;2022-11-06T03:23:57;101255.56;;;31.33;59.20
74474;BME280;62922;-6.168;106.796;2022-11-06T03:26:29;101250.44;;;31.35;59.08
74474;BME280;62922;-6.168;106.796;2022-11-06T03:29:08;101250.97;;;31.37;59.23
74474;BME280;62922;-6.168;106.796;2022-11-06T03:31:36;101244.16;;;31.38;58.83
74474;BME280;62922;-6.168;106.796;2022-11-06T03:34:05;101249.47;;;31.39;59.28
74474;BME280;62922;-6.168;106.796;2022-11-06T03:36:33;101251.66;;;31.42;59.03
74474;BME280;62922;-6.168;106.796;2022-11-06T03:39:05;101257.78;;;31.44;58.51
74474;BME280;62922;-6.168;106.796;2022-11-06T03:43:58;101239.88;;;31.49;58.53
74474;BME280;62922;-6.168;106.796;2022-11-06T03:46:26;101242.03;;;31.52;58.21
74474;BME280;62922;-6.168;106.796;2022-11-06T03:48:54;101234.09;;;31.54;58.05
74474;BME280;62922;-6.168;106.796;2022-11-06T03:51:25;101234.59;;;31.56;58.51
74474;BME280;62922;-6.168;106.796;2022-11-06T03:53:57;101232.28;;;31.58;58.21
74474;BME280;62922;-6.168;106.796;2022-11-06T03:56:30;101229.97;;;31.60;58.10
74474;BME280;62922;-6.168;106.796;2022-11-06T03:58:58;101230.47;;;31.62;58.16
74474;BME280;62922;-6.168;106.796;2022-11-06T04:01:27;101184.94;;;31.46;57.60
74474;BME280;62922;-6.168;106.796;2022-11-06T04:06:26;101202.94;;;31.68;57.92
74474;BME280;62922;-6.168;106.796;2022-11-06T04:08:53;101192.16;;;31.70;57.67
74474;BME280;62922;-6.168;106.796;2022-11-06T04:11:29;101188.66;;;31.73;57.60
74474;BME280;62922;-6.168;106.796;2022-11-06T04:14:07;101182.69;;;31.74;57.87
74474;BME280;62922;-6.168;106.796;2022-11-06T04:16:34;101181.19;;;31.77;57.58
74474;BME280;62922;-6.168;106.796;2022-11-06T04:19:02;101178.03;;;31.78;57.92
74474;BME280;62922;-6.168;106.796;2022-11-06T04:34:44;101138.59;;;31.95;57.57
74474;BME280;62922;-6.168;106.796;2022-11-06T04:37:13;101137.06;;;31.98;57.27
74474;BME280;62922;-6.168;106.796;2022-11-06T04:44:48;101115.31;;;32.07;57.29
74474;BME280;62922;-6.168;106.796;2022-11-06T04:47:16;101113.47;;;32.11;57.70
74474;BME280;62922;-6.168;106.796;2022-11-06T04:49:43;101111.16;;;32.13;57.43
74474;BME280;62922;-6.168;106.796;2022-11-06T04:52:12;101106.84;;;32.15;57.18
74474;BME280;62922;-6.168;106.796;2022-11-06T04:54:40;101103.69;;;32.17;57.93
74474;BME280;62922;-6.168;106.796;2022-11-06T04:57:07;101099.03;;;32.21;57.75
74474;BME280;62922;-6.168;106.796;2022-11-06T04:59:35;101095.88;;;32.22;57.45
74474;BME280;62922;-6.168;106.796;2022-11-06T05:02:01;101092.00;;;32.27;57.31
74474;BME280;62922;-6.168;106.796;2022-11-06T05:04:27;101096.19;;;32.29;57.47
74474;BME280;62922;-6.168;106.796;2022-11-06T05:06:53;101089.69;;;32.29;57.87
74474;BME280;62922;-6.168;106.796;2022-11-06T05:09:19;101088.03;;;32.28;57.62
74474;BME280;62922;-6.168;106.796;2022-11-06T05:11:45;101084.88;;;32.29;57.74
74474;BME280;62922;-6.168;106.796;2022-11-06T05:14:16;101081.22;;;32.29;57.73
74474;BME280;62922;-6.168;106.796;2022-11-06T05:16:42;101076.41;;;32.29;57.93
74474;BME280;62922;-6.168;106.796;2022-11-06T05:19:07;101077.25;;;32.30;58.01
74474;BME280;62922;-6.168;106.796;2022-11-06T05:21:33;101073.59;;;32.29;57.58
74474;BME280;62922;-6.168;106.796;2022-11-06T05:24:19;101077.25;;;32.30;57.59
74474;BME280;62922;-6.168;106.796;2022-11-06T05:26:45;101070.75;;;32.29;57.88
74474;BME280;62922;-6.168;106.796;2022-11-06T05:29:11;101071.94;;;32.28;57.81
74474;BME280;62922;-6.168;106.796;2022-11-06T05:31:37;101066.28;;;32.28;57.36
74474;BME280;62922;-6.168;106.796;2022-11-06T05:34:03;101060.63;;;32.28;57.39
74474;BME280;62922;-6.168;106.796;2022-11-06T05:36:32;101056.13;;;32.27;57.61
74474;BME280;62922;-6.168;106.796;2022-11-06T05:39:01;101054.16;;;32.28;57.62
74474;BME280;62922;-6.168;106.796;2022-11-06T05:41:27;101041.69;;;32.29;57.75
74474;BME280;62922;-6.168;106.796;2022-11-06T05:43:53;101050.16;;;32.29;57.56
74474;BME280;62922;-6.168;106.796;2022-11-06T05:46:21;101044.50;;;32.29;57.55
74474;BME280;62922;-6.168;106.796;2022-11-06T05:48:49;101040.88;;;32.28;57.35
74474;BME280;62922;-6.168;106.796;2022-11-06T05:51:15;101036.03;;;32.29;57.90
74474;BME280;62922;-6.168;106.796;2022-11-06T05:53:44;101034.53;;;32.31;57.48
74474;BME280;62922;-6.168;106.796;2022-11-06T05:56:10;101029.72;;;32.32;57.07
74474;BME280;62922;-6.168;106.796;2022-11-06T05:58:36;101028.19;;;32.34;57.17
74474;BME280;62922;-6.168;106.796;2022-11-06T06:01:02;101025.88;;;32.36;57.33
74474;BME280;62922;-6.168;106.796;2022-11-06T06:03:28;101013.75;;;32.36;57.29
74474;BME280;62922;-6.168;106.796;2022-11-06T06:05:53;101013.75;;;32.36;57.00
74474;BME280;62922;-6.168;106.796;2022-11-06T06:08:19;101006.59;;;32.38;57.38
74474;BME280;62922;-6.168;106.796;2022-11-06T06:10:46;101002.13;;;32.37;57.42
74474;BME280;62922;-6.168;106.796;2022-11-06T06:13:14;100989.63;;;32.38;57.43
74474;BME280;62922;-6.168;106.796;2022-11-06T06:15:40;100984.47;;;32.40;57.46
74474;BME280;62922;-6.168;106.796;2022-11-06T06:18:09;100975.53;;;32.38;57.36
74474;BME280;62922;-6.168;106.796;2022-11-06T06:20:38;100973.19;;;32.40;57.34
74474;BME280;62922;-6.168;106.796;2022-11-06T06:23:06;100968.72;;;32.39;57.46
74474;BME280;62922;-6.168;106.796;2022-11-06T06:25:31;100966.38;;;32.41;56.97
74474;BME280;62922;-6.168;106.796;2022-11-06T06:27:57;100956.06;;;32.45;57.31
74474;BME280;62922;-6.168;106.796;2022-11-06T06:30:26;100958.59;;;32.47;56.82
74474;BME280;62922;-6.168;106.796;2022-11-06T06:32:52;100957.75;;;32.46;56.87
74474;BME280;62922;-6.168;106.796;2022-11-06T06:35:18;100947.94;;;32.44;56.77
74474;BME280;62922;-6.168;106.796;2022-11-06T06:40:13;100942.78;;;32.46;57.02
74474;BME280;62922;-6.168;106.796;2022-11-06T06:42:39;100942.09;;;32.49;56.66
74474;BME280;62922;-6.168;106.796;2022-11-06T06:45:05;100936.59;;;32.52;57.02
74474;BME280;62922;-6.168;106.796;2022-11-06T06:47:30;100930.63;;;32.54;57.13
74474;BME280;62922;-6.168;106.796;2022-11-06T06:49:56;100918.97;;;32.55;56.96
74474;BME280;62922;-6.168;106.796;2022-11-06T06:52:22;100916.28;;;32.59;56.92
74474;BME280;62922;-6.168;106.796;2022-11-06T06:54:48;100916.78;;;32.61;56.72
74474;BME280;62922;-6.168;106.796;2022-11-06T06:57:14;100913.47;;;32.59;56.40
74474;BME280;62922;-6.168;106.796;2022-11-06T06:59:40;100916.44;;;32.63;56.57
74474;BME280;62922;-6.168;106.796;2022-11-06T07:02:07;100896.66;;;32.63;56.39
74474;BME280;62922;-6.168;106.796;2022-11-06T07:04:33;100893.69;;;32.59;56.84
74474;BME280;62922;-6.168;106.796;2022-11-06T07:06:59;100890.16;;;32.62;56.97
74474;BME280;62922;-6.168;106.796;2022-11-06T07:09:25;100891.84;;;32.63;56.88
74474;BME280;62922;-6.168;106.796;2022-11-06T07:11:54;100879.69;;;32.63;56.36
74474;BME280;62922;-6.168;106.796;2022-11-06T07:14:20;100880.88;;;32.62;56.98
74474;BME280;62922;-6.168;106.796;2022-11-06T07:16:45;100858.72;;;32.64;56.89
74474;BME280;62922;-6.168;106.796;2022-11-06T07:19:11;100858.72;;;32.64;56.92
74474;BME280;62922;-6.168;106.796;2022-11-06T07:21:39;100851.44;;;32.63;56.39
74474;BME280;62922;-6.168;106.796;2022-11-06T07:24:05;100839.44;;;32.66;56.39
74474;BME280;62922;-6.168;106.796;2022-11-06T07:26:31;100844.28;;;32.65;56.94
74474;BME280;62922;-6.168;106.796;2022-11-06T07:28:57;100833.28;;;32.64;56.82
74474;BME280;62922;-6.168;106.796;2022-11-06T07:31:23;100834.63;;;32.66;56.81
74474;BME280;62922;-6.168;106.796;2022-11-06T07:33:49;100842.75;;;32.68;56.86
74474;BME280;62922;-6.168;106.796;2022-11-06T07:36:15;100838.91;;;32.72;56.21
74474;BME280;62922;-6.168;106.796;2022-11-06T07:38:41;100834.09;;;32.73;56.69
74474;BME280;62922;-6.168;106.796;2022-11-06T07:41:08;100838.56;;;32.74;56.66
74474;BME280;62922;-6.168;106.796;2022-11-06T07:43:37;100841.38;;;32.74;56.48
74474;BME280;62922;-6.168;106.796;2022-11-06T07:46:04;100845.19;;;32.78;56.26
74474;BME280;62922;-6.168;106.796;2022-11-06T07:48:31;100846.81;;;32.79;56.30
74474;BME280;62922;-6.168;106.796;2022-11-06T07:50:57;100838.34;;;32.79;56.58
74474;BME280;62922;-6.168;106.796;2022-11-06T07:53:23;100832.69;;;32.79;56.33
74474;BME280;62922;-6.168;106.796;2022-11-06T07:55:50;100828.56;;;32.76;56.09
74474;BME280;62922;-6.168;106.796;2022-11-06T07:58:19;100826.06;;;32.75;56.28
74474;BME280;62922;-6.168;106.796;2022-11-06T08:00:45;100824.06;;;32.75;55.96
74474;BME280;62922;-6.168;106.796;2022-11-06T08:03:11;100820.41;;;32.75;56.55
74474;BME280;62922;-6.168;106.796;2022-11-06T08:05:37;100810.78;;;32.76;55.88
74474;BME280;62922;-6.168;106.796;2022-11-06T08:08:03;100816.56;;;32.79;56.06
74474;BME280;62922;-6.168;106.796;2022-11-06T08:10:29;100813.38;;;32.81;56.28
74474;BME280;62922;-6.168;106.796;2022-11-06T08:12:55;100803.41;;;32.83;55.86
74474;BME280;62922;-6.168;106.796;2022-11-06T08:15:23;100798.22;;;32.85;55.88
74474;BME280;62922;-6.168;106.796;2022-11-06T08:17:49;100791.75;;;32.85;56.12
74474;BME280;62922;-6.168;106.796;2022-11-06T08:20:15;100795.03;;;32.87;56.05
74474;BME280;62922;-6.168;106.796;2022-11-06T08:22:41;100796.00;;;32.91;56.22
74474;BME280;62922;-6.168;106.796;2022-11-06T08:25:07;100799.63;;;32.91;55.74
74474;BME280;62922;-6.168;106.796;2022-11-06T08:27:33;100798.47;;;32.92;56.24
74474;BME280;62922;-6.168;106.796;2022-11-06T08:29:59;100790.53;;;32.94;55.82
74474;BME280;62922;-6.168;106.796;2022-11-06T08:32:26;100789.34;;;32.95;55.61
74474;BME280;62922;-6.168;106.796;2022-11-06T08:34:52;100793.47;;;32.98;55.66
74474;BME280;62922;-6.168;106.796;2022-11-06T08:37:18;100786.63;;;32.99;56.09
74474;BME280;62922;-6.168;106.796;2022-11-06T08:39:44;100800.78;;;32.99;55.58
74474;BME280;62922;-6.168;106.796;2022-11-06T08:42:10;100794.31;;;32.98;55.64
74474;BME280;62922;-6.168;106.796;2022-11-06T08:44:36;100797.13;;;32.98;56.10
74474;BME280;62922;-6.168;106.796;2022-11-06T08:47:02;100791.47;;;32.98;55.65
74474;BME280;62922;-6.168;106.796;2022-11-06T08:49:28;100789.47;;;32.99;55.92
74474;BME280;62922;-6.168;106.796;2022-11-06T08:51:54;100793.94;;;33.00;56.16
74474;BME280;62922;-6.168;106.796;2022-11-06T08:54:20;100800.41;;;33.00;55.60
74474;BME280;62922;-6.168;106.796;2022-11-06T08:56:45;100802.09;;;33.01;55.67
74474;BME280;62922;-6.168;106.796;2022-11-06T08:59:11;100794.44;;;33.02;55.66
74474;BME280;62922;-6.168;106.796;2022-11-06T09:01:37;100802.09;;;33.01;55.64
74474;BME280;62922;-6.168;106.796;2022-11-06T09:04:06;100807.03;;;33.04;55.56
74474;BME280;62922;-6.168;106.796;2022-11-06T09:06:32;100811.53;;;33.05;55.85
74474;BME280;62922;-6.168;106.796;2022-11-06T09:08:58;100800.69;;;33.07;55.42
74474;BME280;62922;-6.168;106.796;2022-11-06T09:11:26;100800.34;;;33.09;55.59
74474;BME280;62922;-6.168;106.796;2022-11-06T09:13:52;100806.81;;;33.09;55.59
74474;BME280;62922;-6.168;106.796;2022-11-06T09:16:18;100806.00;;;33.09;55.43
74474;BME280;62922;-6.168;106.796;2022-11-06T09:18:44;100810.47;;;33.10;55.87
74474;BME280;62922;-6.168;106.796;2022-11-06T09:21:13;100801.16;;;33.09;55.32
74474;BME280;62922;-6.168;106.796;2022-11-06T09:23:39;100810.47;;;33.10;55.38
74474;BME280;62922;-6.168;106.796;2022-11-06T09:26:05;100808.84;;;33.09;55.85
74474;BME280;62922;-6.168;106.796;2022-11-06T09:28:33;100814.50;;;33.09;55.68
74474;BME280;62922;-6.168;106.796;2022-11-06T09:31:01;100822.97;;;33.09;55.95
74474;BME280;62922;-6.168;106.796;2022-11-06T09:33:27;100822.47;;;33.07;56.08
74474;BME280;62922;-6.168;106.796;2022-11-06T09:35:53;100828.13;;;33.07;55.99
74474;BME280;62922;-6.168;106.796;2022-11-06T09:38:19;100823.31;;;33.07;55.90
74474;BME280;62922;-6.168;106.796;2022-11-06T09:40:48;100822.47;;;33.07;55.98
74474;BME280;62922;-6.168;106.796;2022-11-06T09:45:41;100820.50;;;33.07;55.19
74474;BME280;62922;-6.168;106.796;2022-11-06T09:50:39;100828.97;;;33.07;55.39
74474;BME280;62922;-6.168;106.796;2022-11-06T09:53:12;100834.63;;;33.07;55.71
74474;BME280;62922;-6.168;106.796;2022-11-06T09:55:40;100833.78;;;33.07;55.46
74474;BME280;62922;-6.168;106.796;2022-11-06T09:58:12;100836.63;;;33.07;55.27
74474;BME280;62922;-6.168;106.796;2022-11-06T10:00:41;100830.97;;;33.07;55.58
74474;BME280;62922;-6.168;106.796;2022-11-06T10:05:36;100848.41;;;33.09;54.90
74474;BME280;62922;-6.168;106.796;2022-11-06T10:08:04;100848.41;;;33.09;55.22
74474;BME280;62922;-6.168;106.796;2022-11-06T10:13:05;100855.22;;;33.08;55.08
74474;BME280;62922;-6.168;106.796;2022-11-06T10:15:41;100858.06;;;33.08;55.18
74474;BME280;62922;-6.168;106.796;2022-11-06T10:18:12;100858.88;;;33.08;54.88
74474;BME280;62922;-6.168;106.796;2022-11-06T10:23:13;100858.41;;;33.06;55.26
74474;BME280;62922;-6.168;106.796;2022-11-06T10:25:43;100859.59;;;33.05;55.71
74474;BME280;62922;-6.168;106.796;2022-11-06T10:29:06;100863.56;;;33.04;55.45
74474;BME280;62922;-6.168;106.796;2022-11-06T10:33:25;100874.09;;;33.04;55.15
74474;BME280;62922;-6.168;106.796;2022-11-06T10:35:58;100876.44;;;33.02;55.06
74474;BME280;62922;-6.168;106.796;2022-11-06T10:40:58;100882.41;;;33.00;55.79
74474;BME280;62922;-6.168;106.796;2022-11-06T10:43:29;100886.41;;;32.99;55.45
74474;BME280;62922;-6.168;106.796;2022-11-06T10:51:16;100890.44;;;32.98;55.44
74474;BME280;62922;-6.168;106.796;2022-11-06T10:56:06;100889.94;;;32.96;55.40
74474;BME280;62922;-6.168;106.796;2022-11-06T10:58:37;100892.28;;;32.94;55.55
74474;BME280;62922;-6.168;106.796;2022-11-06T11:01:03;100906.44;;;32.94;55.87
74474;BME280;62922;-6.168;106.796;2022-11-06T11:03:47;100914.91;;;32.94;55.51
74474;BME280;62922;-6.168;106.796;2022-11-06T11:06:15;100923.38;;;32.94;55.56
74474;BME280;62922;-6.168;106.796;2022-11-06T11:08:46;100925.38;;;32.94;56.20
74474;BME280;62922;-6.168;106.796;2022-11-06T11:13:44;100932.19;;;32.93;56.04
74474;BME280;62922;-6.168;106.796;2022-11-06T11:16:36;100928.53;;;32.92;55.66
74474;BME280;62922;-6.168;106.796;2022-11-06T11:19:13;100931.69;;;32.91;56.07
74474;BME280;62922;-6.168;106.796;2022-11-06T11:21:40;100943.00;;;32.91;56.16
74474;BME280;62922;-6.168;106.796;2022-11-06T11:24:16;100949.81;;;32.90;56.15
74474;BME280;62922;-6.168;106.796;2022-11-06T11:26:42;100947.00;;;32.90;56.11
74474;BME280;62922;-6.168;106.796;2022-11-06T11:29:14;100951.00;;;32.89;55.51
74474;BME280;62922;-6.168;106.796;2022-11-06T11:31:43;100961.47;;;32.88;56.26
74474;BME280;62922;-6.168;106.796;2022-11-06T11:34:19;100965.47;;;32.87;56.14
74474;BME280;62922;-6.168;106.796;2022-11-06T11:36:46;100968.63;;;32.86;56.18
74474;BME280;62922;-6.168;106.796;2022-11-06T11:39:13;100972.28;;;32.86;55.53
74474;BME280;62922;-6.168;106.796;2022-11-06T11:41:39;100978.28;;;32.85;55.68
74474;BME280;62922;-6.168;106.796;2022-11-06T11:44:12;100985.59;;;32.86;56.08
74474;BME280;62922;-6.168;106.796;2022-11-06T11:49:09;100984.63;;;32.82;56.39
74474;BME280;62922;-6.168;106.796;2022-11-06T11:51:52;100995.94;;;32.82;56.57
74474;BME280;62922;-6.168;106.796;2022-11-06T11:54:19;100995.94;;;32.82;55.97
74474;BME280;62922;-6.168;106.796;2022-11-06T11:56:49;100999.09;;;32.80;56.50
74474;BME280;62922;-6.168;106.796;2022-11-06T11:59:16;100993.78;;;32.79;56.31
74474;BME280;62922;-6.168;106.796;2022-11-06T12:01:44;101005.94;;;32.79;56.09
74474;BME280;62922;-6.168;106.796;2022-11-06T12:04:35;101002.25;;;32.79;56.17
74474;BME280;62922;-6.168;106.796;2022-11-06T12:06:57;101007.91;;;32.79;56.14
74474;BME280;62922;-6.168;106.796;2022-11-06T12:09:24;101023.22;;;32.78;56.23
74474;BME280;62922;-6.168;106.796;2022-11-06T12:11:54;101017.09;;;32.76;56.48
74474;BME280;62922;-6.168;106.796;2022-11-06T12:16:48;101020.25;;;32.74;56.70
74474;BME280;62922;-6.168;106.796;2022-11-06T12:19:15;101032.38;;;32.75;56.90
74474;BME280;62922;-6.168;106.796;2022-11-06T12:21:42;101028.25;;;32.72;57.08
74474;BME280;62922;-6.168;106.796;2022-11-06T12:24:11;101033.41;;;32.70;56.89
74474;BME280;62922;-6.168;106.796;2022-11-06T12:26:43;101037.06;;;32.71;56.98
74474;BME280;62922;-6.168;106.796;2022-11-06T12:34:10;101044.22;;;32.68;56.56
74474;BME280;62922;-6.168;106.796;2022-11-06T12:36:40;101051.50;;;32.69;56.84
74474;BME280;62922;-6.168;106.796;2022-11-06T12:39:11;101059.19;;;32.69;56.83
74474;BME280;62922;-6.168;106.796;2022-11-06T12:41:39;101022.56;;;32.43;56.91
74474;BME280;62922;-6.168;106.796;2022-11-06T12:44:08;101056.72;;;32.67;57.22
74474;BME280;62922;-6.168;106.796;2022-11-06T12:51:37;101071.16;;;32.66;57.34
74474;BME280;62922;-6.168;106.796;2022-11-06T13:06:48;101087.97;;;32.62;57.37
74474;BME280;62922;-6.168;106.796;2022-11-06T13:09:19;101085.47;;;32.61;57.24
74474;BME280;62922;-6.168;106.796;2022-11-06T13:24:12;101114.75;;;32.56;57.26
74474;BME280;62922;-6.168;106.796;2022-11-06T13:29:08;101115.06;;;32.54;57.48
74474;BME280;62922;-6.168;106.796;2022-11-06T13:34:03;101119.06;;;32.53;57.25
74474;BME280;62922;-6.168;106.796;2022-11-06T13:36:30;101121.06;;;32.53;57.26
74474;BME280;62922;-6.168;106.796;2022-11-06T13:41:28;101118.59;;;32.51;57.23
74474;BME280;62922;-6.168;106.796;2022-11-06T13:43:58;101126.22;;;32.51;58.00
74474;BME280;62922;-6.168;106.796;2022-11-06T14:01:23;101137.03;;;32.49;57.76
74474;BME280;62922;-6.168;106.796;2022-11-06T14:06:20;101142.22;;;32.47;57.81
74474;BME280;62922;-6.168;106.796;2022-11-06T14:11:16;101151.50;;;32.47;57.66
74474;BME280;62922;-6.168;106.796;2022-11-06T14:18:38;101152.66;;;32.46;58.06
74474;BME280;62922;-6.168;106.796;2022-11-06T14:26:00;101158.97;;;32.43;57.78
74474;BME280;62922;-6.168;106.796;2022-11-06T14:28:29;101156.78;;;32.40;57.96
74474;BME280;62922;-6.168;106.796;2022-11-06T14:30:56;101154.81;;;32.41;57.94
74474;BME280;62922;-6.168;106.796;2022-11-06T14:35:51;101158.78;;;32.40;58.13
74474;BME280;62922;-6.168;106.796;2022-11-06T14:38:19;101163.63;;;32.39;57.94
74474;BME280;62922;-6.168;106.796;2022-11-06T14:40:55;101166.75;;;32.38;58.39
74474;BME280;62922;-6.168;106.796;2022-11-06T14:43:45;101173.59;;;32.37;58.00
74474;BME280;62922;-6.168;106.796;2022-11-06T14:48:46;101171.94;;;32.36;58.17
74474;BME280;62922;-6.168;106.796;2022-11-06T14:51:13;101172.25;;;32.34;58.25
74474;BME280;62922;-6.168;106.796;2022-11-06T14:56:08;101160.16;;;32.34;58.27
74474;BME280;62922;-6.168;106.796;2022-11-06T14:58:36;101168.94;;;32.32;58.74
74474;BME280;62922;-6.168;106.796;2022-11-06T15:06:00;101164.78;;;32.30;58.34
74474;BME280;62922;-6.168;106.796;2022-11-06T15:10:57;101163.13;;;32.29;58.61
74474;BME280;62922;-6.168;106.796;2022-11-06T15:13:23;101167.97;;;32.28;58.54
74474;BME280;62922;-6.168;106.796;2022-11-06T15:15:51;101168.75;;;32.29;58.52
74474;BME280;62922;-6.168;106.796;2022-11-06T15:18:20;101175.09;;;32.26;58.72
74474;BME280;62922;-6.168;106.796;2022-11-06T15:20:52;101166.63;;;32.26;58.85